createdAt,value
2023-03-06T00:00:03.565Z,4.60
2023-03-06T00:01:36.263Z,4.60
2023-03-06T00:03:09.519Z,4.60
2023-03-06T00:04:42.219Z,4.60
2023-03-06T00:06:14.978Z,4.60
2023-03-06T00:07:47.757Z,4.50
2023-03-06T00:09:20.455Z,4.60
2023-03-06T00:10:53.177Z,4.50
2023-03-06T00:12:27.514Z,4.60
2023-03-06T00:14:00.215Z,4.60
2023-03-06T00:15:33.293Z,4.60
2023-03-06T00:17:06.085Z,4.60
2023-03-06T00:18:40.109Z,4.50
2023-03-06T00:20:14.097Z,4.60
2023-03-06T00:21:46.817Z,4.60
2023-03-06T00:23:19.587Z,4.60
2023-03-06T00:24:54.297Z,4.60
2023-03-06T00:26:27.049Z,4.50
2023-03-06T00:27:59.731Z,4.50
2023-03-06T00:29:31.586Z,4.50
2023-03-06T00:31:05.156Z,4.50
2023-03-06T00:32:36.999Z,4.50
2023-03-06T00:34:11.162Z,4.50
2023-03-06T00:35:44.060Z,4.50
2023-03-06T00:37:16.834Z,4.50
2023-03-06T00:38:48.555Z,4.50
2023-03-06T00:40:22.324Z,4.50
2023-03-06T00:41:55.507Z,4.50
2023-03-06T00:43:27.266Z,4.50
2023-03-06T00:44:59.966Z,4.50
2023-03-06T00:46:32.666Z,4.50
2023-03-06T00:48:06.274Z,4.50
2023-03-06T00:49:40.359Z,4.40
2023-03-06T00:51:14.080Z,4.40
2023-03-06T00:52:45.900Z,4.40
2023-03-06T00:54:18.723Z,4.40
2023-03-06T00:55:50.774Z,4.40
2023-03-06T00:57:23.462Z,4.40
2023-03-06T00:58:56.394Z,4.40
2023-03-06T01:00:29.095Z,4.40
2023-03-06T01:02:00.909Z,4.40
2023-03-06T01:03:33.612Z,4.40
2023-03-06T01:05:09.249Z,4.40
2023-03-06T01:06:42.086Z,4.40
2023-03-06T01:08:14.784Z,4.40
2023-03-06T01:09:46.511Z,4.40
2023-03-06T01:11:19.229Z,4.40
2023-03-06T01:12:51.123Z,4.40
2023-03-06T01:14:24.257Z,4.40
2023-03-06T01:16:05.670Z,4.40
2023-03-06T01:17:37.450Z,4.30
2023-03-06T01:19:10.561Z,4.40
2023-03-06T01:20:44.592Z,4.40
2023-03-06T01:22:17.339Z,4.30
2023-03-06T01:23:50.077Z,4.30
2023-03-06T01:25:21.920Z,4.40
2023-03-06T01:26:54.723Z,4.30
2023-03-06T01:28:28.293Z,4.30
2023-03-06T01:30:01.000Z,4.30
2023-03-06T01:31:33.869Z,4.30
2023-03-06T01:33:06.680Z,4.30
2023-03-06T01:34:38.432Z,4.30
2023-03-06T01:36:13.905Z,4.30
2023-03-06T01:37:46.591Z,4.20
2023-03-06T01:39:19.385Z,4.20
2023-03-06T01:40:52.102Z,4.20
2023-03-06T01:42:24.907Z,4.20
2023-03-06T01:43:57.591Z,4.20
2023-03-06T01:46:19.228Z,4.10
2023-03-06T01:47:52.036Z,4.20
2023-03-06T01:49:29.386Z,4.20
2023-03-06T01:51:01.152Z,4.20
2023-03-06T01:52:39.363Z,4.10
2023-03-06T01:54:16.799Z,4.10
2023-03-06T01:55:49.620Z,4.10
2023-03-06T01:57:25.119Z,4.10
2023-03-06T01:58:59.303Z,4.10
2023-03-06T02:00:32.240Z,4.10
2023-03-06T02:02:07.956Z,4.10
2023-03-06T02:03:41.255Z,4.10
2023-03-06T02:05:14.154Z,4.00
2023-03-06T02:06:47.191Z,4.10
2023-03-06T02:08:23.133Z,4.10
2023-03-06T02:09:55.860Z,4.10
2023-03-06T02:11:28.845Z,4.10
2023-03-06T02:13:02.130Z,4.10
2023-03-06T02:14:35.139Z,4.10
2023-03-06T02:16:09.596Z,4.10
2023-03-06T02:17:43.601Z,4.10
2023-03-06T02:19:29.410Z,4.10
2023-03-06T02:21:03.875Z,4.10
2023-03-06T02:22:41.475Z,4.10
2023-03-06T02:24:35.967Z,4.10
2023-03-06T02:26:10.070Z,4.10
2023-03-06T02:27:42.931Z,4.10
2023-03-06T02:29:19.386Z,4.10
2023-03-06T02:30:54.211Z,4.10
2023-03-06T02:32:27.096Z,4.10
2023-03-06T02:34:34.634Z,4.10
2023-03-06T02:36:11.472Z,4.10
2023-03-06T02:37:44.634Z,4.10
2023-03-06T02:39:19.583Z,4.10
2023-03-06T02:40:53.793Z,4.10
2023-03-06T02:42:29.679Z,4.10
2023-03-06T02:44:01.423Z,4.10
2023-03-06T02:45:38.472Z,4.10
2023-03-06T02:47:10.198Z,4.10
2023-03-06T02:48:42.896Z,4.10
2023-03-06T02:50:15.631Z,4.00
2023-03-06T02:51:48.376Z,4.00
2023-03-06T02:53:21.988Z,4.00
2023-03-06T02:54:54.735Z,4.00
2023-03-06T02:56:27.485Z,4.00
2023-03-06T02:58:01.808Z,4.00
2023-03-06T02:59:33.608Z,4.00
2023-03-06T03:01:07.014Z,4.00
2023-03-06T03:02:38.968Z,4.00
2023-03-06T03:04:11.891Z,4.00
2023-03-06T03:05:44.627Z,4.00
2023-03-06T03:07:17.337Z,4.00
2023-03-06T03:08:50.057Z,4.00
2023-03-06T03:10:22.791Z,3.90
2023-03-06T03:11:55.506Z,4.00
2023-03-06T03:13:28.658Z,3.90
2023-03-06T03:15:01.409Z,3.90
2023-03-06T03:16:33.172Z,3.90
2023-03-06T03:18:05.925Z,3.90
2023-03-06T03:19:37.721Z,3.90
2023-03-06T03:21:12.672Z,3.90
2023-03-06T03:22:49.034Z,4.00
2023-03-06T03:24:21.785Z,3.90
2023-03-06T03:25:54.574Z,4.00
2023-03-06T03:27:27.360Z,3.90
2023-03-06T03:29:01.371Z,3.90
2023-03-06T03:30:34.096Z,4.00
2023-03-06T03:32:07.528Z,3.90
2023-03-06T03:33:39.531Z,4.00
2023-03-06T03:35:12.665Z,4.00
2023-03-06T03:36:44.602Z,4.00
2023-03-06T03:38:17.306Z,4.00
2023-03-06T03:39:50.064Z,4.00
2023-03-06T03:41:22.794Z,4.00
2023-03-06T03:42:55.493Z,4.00
2023-03-06T03:44:29.570Z,4.00
2023-03-06T03:46:01.370Z,3.90
2023-03-06T03:47:34.137Z,4.00
2023-03-06T03:49:07.101Z,4.00
2023-03-06T03:50:38.883Z,4.00
2023-03-06T03:52:11.631Z,4.00
2023-03-06T03:53:44.324Z,4.00
2023-03-06T03:55:17.156Z,4.00
2023-03-06T03:56:50.021Z,4.00
2023-03-06T03:58:22.712Z,4.00
2023-03-06T03:59:56.233Z,4.00
2023-03-06T04:01:29.302Z,4.00
2023-03-06T04:03:01.992Z,4.00
2023-03-06T04:04:33.811Z,4.00
2023-03-06T04:06:07.187Z,4.00
2023-03-06T04:07:40.134Z,4.00
2023-03-06T04:09:12.908Z,4.00
2023-03-06T04:10:44.662Z,4.00
2023-03-06T04:12:18.082Z,4.00
2023-03-06T04:13:50.799Z,4.10
2023-03-06T04:15:24.854Z,4.10
2023-03-06T04:16:57.564Z,4.00
2023-03-06T04:18:30.359Z,4.10
2023-03-06T04:20:04.332Z,4.00
2023-03-06T04:21:37.017Z,4.10
2023-03-06T04:23:09.131Z,4.00
2023-03-06T04:24:41.852Z,4.00
2023-03-06T04:26:14.565Z,4.00
2023-03-06T04:27:46.311Z,4.00
2023-03-06T04:29:19.027Z,4.00
2023-03-06T04:30:53.117Z,4.00
2023-03-06T04:32:25.306Z,4.00
2023-03-06T04:33:58.065Z,4.00
2023-03-06T04:35:30.855Z,4.00
2023-03-06T04:37:03.605Z,4.00
2023-03-06T04:38:36.351Z,4.00
2023-03-06T04:40:12.263Z,4.00
2023-03-06T04:41:45.036Z,4.00
2023-03-06T04:43:18.114Z,4.00
2023-03-06T04:44:50.838Z,4.00
2023-03-06T04:46:26.356Z,4.00
2023-03-06T04:47:59.436Z,4.00
2023-03-06T04:49:32.121Z,3.90
2023-03-06T04:51:05.350Z,3.90
2023-03-06T04:52:38.152Z,3.90
2023-03-06T04:54:10.826Z,3.90
2023-03-06T04:55:43.747Z,3.90
2023-03-06T04:57:16.575Z,3.90
2023-03-06T04:58:48.558Z,3.90
2023-03-06T05:00:23.689Z,3.90
2023-03-06T05:01:58.102Z,3.90
2023-03-06T05:03:30.284Z,3.80
2023-03-06T05:05:03.082Z,3.90
2023-03-06T05:06:35.768Z,3.90
2023-03-06T05:08:08.995Z,3.90
2023-03-06T05:09:40.730Z,3.90
2023-03-06T05:11:13.425Z,3.90
2023-03-06T05:12:46.235Z,3.90
2023-03-06T05:14:18.947Z,3.90
2023-03-06T05:15:50.900Z,3.90
2023-03-06T05:17:24.953Z,3.90
2023-03-06T05:18:57.644Z,3.90
2023-03-06T05:20:30.431Z,3.90
2023-03-06T05:22:02.222Z,3.90
2023-03-06T05:23:38.335Z,3.90
2023-03-06T05:25:11.645Z,3.90
2023-03-06T05:26:44.342Z,3.90
2023-03-06T05:28:16.098Z,3.90
2023-03-06T05:29:48.787Z,3.90
2023-03-06T05:31:21.627Z,3.90
2023-03-06T05:32:55.680Z,3.90
2023-03-06T05:34:28.391Z,3.90
2023-03-06T05:36:01.515Z,3.90
2023-03-06T05:37:33.333Z,3.90
2023-03-06T05:39:06.359Z,3.90
2023-03-06T05:40:41.056Z,3.90
2023-03-06T05:42:13.741Z,3.90
2023-03-06T05:43:46.445Z,3.90
2023-03-06T05:45:19.294Z,3.80
2023-03-06T05:46:51.063Z,3.90
2023-03-06T05:48:25.773Z,3.80
2023-03-06T05:49:58.491Z,3.80
2023-03-06T05:51:31.235Z,3.80
2023-03-06T05:53:04.380Z,3.90
2023-03-06T05:54:36.902Z,3.90
2023-03-06T05:56:09.864Z,3.80
2023-03-06T05:57:42.847Z,3.80
2023-03-06T05:59:15.564Z,3.70
2023-03-06T06:00:48.305Z,3.70
2023-03-06T06:02:21.268Z,3.80
2023-03-06T06:03:55.414Z,3.80
2023-03-06T06:05:28.116Z,3.80
2023-03-06T06:07:01.998Z,3.80
2023-03-06T06:08:34.753Z,3.80
2023-03-06T06:10:08.060Z,3.80
2023-03-06T06:11:39.776Z,3.80
2023-03-06T06:13:12.523Z,3.70
2023-03-06T06:14:45.307Z,3.80
2023-03-06T06:16:19.064Z,3.80
2023-03-06T06:17:51.808Z,3.80
2023-03-06T06:19:26.050Z,3.80
2023-03-06T06:20:58.759Z,3.80
2023-03-06T06:22:31.515Z,3.80
2023-03-06T06:24:04.301Z,3.80
2023-03-06T06:25:37.603Z,3.80
2023-03-06T06:27:10.621Z,3.80
2023-03-06T06:28:43.335Z,3.80
2023-03-06T06:30:16.324Z,3.80
2023-03-06T06:31:49.166Z,3.80
2023-03-06T06:33:21.916Z,3.80
2023-03-06T06:34:56.189Z,3.80
2023-03-06T06:36:28.907Z,3.90
2023-03-06T06:38:01.578Z,3.90
2023-03-06T06:39:34.287Z,3.90
2023-03-06T06:41:35.663Z,3.90
2023-03-06T06:42:59.638Z,3.90
2023-03-06T06:44:32.347Z,3.90
2023-03-06T06:46:28.309Z,3.90
2023-03-06T06:47:58.564Z,3.90
2023-03-06T06:49:31.373Z,3.90
2023-03-06T06:51:06.104Z,3.90
2023-03-06T06:52:38.861Z,3.80
2023-03-06T06:54:12.729Z,3.90
2023-03-06T06:55:45.423Z,3.90
2023-03-06T06:57:18.551Z,3.90
2023-03-06T06:58:52.868Z,3.80
2023-03-06T07:00:25.892Z,3.80
2023-03-06T07:01:57.715Z,3.80
2023-03-06T07:03:30.429Z,3.80
2023-03-06T07:05:05.380Z,3.90
2023-03-06T07:06:39.670Z,3.90
2023-03-06T07:08:12.350Z,3.90
2023-03-06T07:09:45.025Z,3.90
2023-03-06T07:11:18.994Z,3.90
2023-03-06T07:12:51.690Z,3.90
2023-03-06T07:14:24.432Z,3.80
2023-03-06T07:15:57.179Z,3.90
2023-03-06T07:17:29.908Z,3.90
2023-03-06T07:19:02.719Z,3.90
2023-03-06T07:20:35.954Z,3.80
2023-03-06T07:22:10.040Z,3.90
2023-03-06T07:23:43.076Z,3.90
2023-03-06T07:25:15.920Z,3.90
2023-03-06T07:26:49.214Z,3.90
2023-03-06T07:28:22.795Z,3.90
2023-03-06T07:29:55.789Z,3.90
2023-03-06T07:31:29.000Z,3.90
2023-03-06T07:33:01.827Z,3.90
2023-03-06T07:34:34.558Z,3.90
2023-03-06T07:36:12.827Z,3.90
2023-03-06T07:37:47.841Z,3.90
2023-03-06T07:39:20.525Z,3.90
2023-03-06T07:40:53.634Z,3.90
2023-03-06T07:42:27.552Z,4.00
2023-03-06T07:44:00.318Z,3.90
2023-03-06T07:45:33.692Z,4.00
2023-03-06T07:47:06.764Z,4.00
2023-03-06T07:48:39.972Z,4.00
2023-03-06T07:50:13.197Z,4.00
2023-03-06T07:51:46.198Z,4.00
2023-03-06T07:53:22.576Z,4.00
2023-03-06T07:54:55.380Z,4.00
2023-03-06T07:56:28.110Z,4.00
2023-03-06T07:58:00.926Z,4.10
2023-03-06T07:59:33.606Z,4.10
2023-03-06T08:01:08.126Z,4.10
2023-03-06T08:02:41.966Z,4.10
2023-03-06T08:04:14.772Z,4.10
2023-03-06T08:05:47.560Z,4.10
2023-03-06T08:07:20.543Z,4.20
2023-03-06T08:08:56.409Z,4.20
2023-03-06T08:10:29.297Z,4.20
2023-03-06T08:12:02.327Z,4.20
2023-03-06T08:13:35.654Z,4.30
2023-03-06T08:15:10.455Z,4.30
2023-03-06T08:16:43.224Z,4.30
2023-03-06T08:18:15.951Z,4.40
2023-03-06T08:19:48.669Z,4.40
2023-03-06T08:21:23.466Z,4.40
2023-03-06T08:22:56.181Z,4.40
2023-03-06T08:24:30.232Z,4.50
2023-03-06T08:26:05.808Z,4.50
2023-03-06T08:27:38.951Z,4.50
2023-03-06T08:29:12.297Z,4.50
2023-03-06T08:30:44.978Z,4.60
2023-03-06T08:32:17.684Z,4.60
2023-03-06T08:33:50.419Z,4.50
2023-03-06T08:35:23.475Z,4.60
2023-03-06T08:36:56.159Z,4.60
2023-03-06T08:38:28.911Z,4.60
2023-03-06T08:40:04.619Z,4.70
2023-03-06T08:41:38.278Z,4.70
2023-03-06T08:43:14.009Z,4.70
2023-03-06T08:44:47.109Z,4.80
2023-03-06T08:46:21.850Z,4.80
2023-03-06T08:47:54.538Z,4.90
2023-03-06T08:49:27.247Z,4.90
2023-03-06T08:50:59.969Z,4.90
2023-03-06T08:52:32.679Z,4.90
2023-03-06T08:54:05.407Z,4.90
2023-03-06T08:55:39.498Z,4.90
2023-03-06T08:57:12.213Z,5.00
2023-03-06T08:58:44.944Z,4.90
2023-03-06T09:00:18.774Z,4.90
2023-03-06T09:01:51.542Z,4.90
2023-03-06T09:03:24.234Z,5.00
2023-03-06T09:04:56.953Z,5.00
2023-03-06T09:06:33.145Z,5.00
2023-03-06T09:08:06.238Z,5.10
2023-03-06T09:09:38.968Z,5.10
2023-03-06T09:11:14.284Z,5.10
2023-03-06T09:12:50.828Z,5.20
2023-03-06T09:14:25.253Z,5.20
2023-03-06T09:15:58.029Z,5.30
2023-03-06T09:17:31.128Z,5.40
2023-03-06T09:19:03.948Z,5.50
2023-03-06T09:20:36.651Z,5.60
2023-03-06T09:22:09.435Z,5.70
2023-03-06T09:23:42.166Z,5.70
2023-03-06T09:25:20.078Z,5.80
2023-03-06T09:26:54.229Z,5.80
2023-03-06T09:28:27.370Z,5.80
2023-03-06T09:30:00.166Z,5.90
2023-03-06T09:31:33.024Z,5.90
2023-03-06T09:33:05.725Z,5.90
2023-03-06T09:34:38.412Z,6.00
2023-03-06T09:36:16.694Z,6.00
2023-03-06T09:37:49.408Z,6.00
2023-03-06T09:39:22.137Z,6.10
2023-03-06T09:41:04.178Z,6.20
2023-03-06T09:42:38.217Z,6.30
2023-03-06T09:44:15.785Z,6.40
2023-03-06T09:45:48.521Z,6.50
2023-03-06T09:47:41.591Z,6.60
2023-03-06T09:49:38.870Z,6.60
2023-03-06T09:51:16.278Z,6.70
2023-03-06T09:53:02.666Z,6.70
2023-03-06T09:54:41.044Z,6.60
2023-03-06T09:56:18.594Z,6.60
2023-03-06T09:57:56.381Z,6.50
2023-03-06T09:59:30.339Z,6.50
2023-03-06T10:01:07.061Z,6.50
2023-03-06T10:02:43.542Z,6.50
2023-03-06T10:04:31.620Z,6.50
2023-03-06T10:06:13.908Z,6.50
2023-03-06T10:07:51.644Z,6.50
2023-03-06T10:09:28.148Z,6.40
2023-03-06T10:11:03.677Z,6.40
2023-03-06T10:12:39.043Z,6.40
2023-03-06T10:14:20.781Z,6.30
2023-03-06T10:16:01.220Z,6.30
2023-03-06T10:17:37.538Z,6.30
2023-03-06T10:19:15.365Z,6.30
2023-03-06T10:20:52.558Z,6.30
2023-03-06T10:22:30.170Z,6.30
2023-03-06T10:24:14.302Z,6.40
2023-03-06T10:25:54.182Z,6.50
2023-03-06T10:27:39.926Z,6.80
2023-03-06T10:29:31.912Z,7.10
2023-03-06T10:31:10.611Z,7.20
2023-03-06T10:32:52.019Z,7.30
2023-03-06T10:34:29.675Z,7.40
2023-03-06T10:36:02.589Z,7.40
2023-03-06T10:37:35.332Z,7.40
2023-03-06T10:39:16.317Z,7.40
2023-03-06T10:41:06.532Z,7.50
2023-03-06T10:42:39.223Z,7.50
2023-03-06T10:44:24.414Z,7.50
2023-03-06T10:45:57.292Z,7.40
2023-03-06T10:47:34.814Z,7.40
2023-03-06T10:49:24.673Z,7.40
2023-03-06T10:51:18.599Z,7.40
2023-03-06T10:53:01.920Z,7.30
2023-03-06T10:54:36.318Z,7.20
2023-03-06T10:56:10.411Z,7.20
2023-03-06T10:57:43.130Z,7.20
2023-03-06T10:59:18.042Z,7.20
2023-03-06T11:01:02.525Z,7.20
2023-03-06T11:02:38.336Z,7.10
2023-03-06T11:04:23.875Z,7.00
2023-03-06T11:06:01.317Z,7.00
2023-03-06T11:07:34.946Z,7.10
2023-03-06T11:09:26.792Z,7.10
2023-03-06T11:11:02.875Z,7.10
2023-03-06T11:12:36.953Z,7.10
2023-03-06T11:14:16.487Z,7.10
2023-03-06T11:15:58.960Z,7.20
2023-03-06T11:17:32.025Z,7.20
2023-03-06T11:19:18.620Z,7.40
2023-03-06T11:20:54.179Z,7.30
2023-03-06T11:22:27.040Z,7.30
2023-03-06T11:24:05.031Z,7.30
2023-03-06T11:25:42.583Z,7.30
2023-03-06T11:27:24.559Z,7.40
2023-03-06T11:29:13.002Z,7.40
2023-03-06T11:30:48.953Z,7.40
2023-03-06T11:32:27.723Z,7.40
2023-03-06T11:34:08.424Z,7.50
2023-03-06T11:35:50.480Z,7.50
2023-03-06T11:37:38.303Z,7.50
2023-03-06T11:39:19.929Z,7.60
2023-03-06T11:40:55.198Z,7.60
2023-03-06T11:42:30.111Z,7.70
2023-03-06T11:44:13.450Z,7.70
2023-03-06T11:45:49.714Z,7.70
2023-03-06T11:47:29.616Z,7.70
2023-03-06T11:49:07.823Z,7.70
2023-03-06T11:50:44.630Z,7.70
2023-03-06T11:52:24.008Z,7.70
2023-03-06T11:53:59.470Z,7.80
2023-03-06T11:55:44.113Z,7.80
2023-03-06T11:57:20.780Z,7.80
2023-03-06T11:59:04.113Z,7.90
2023-03-06T12:00:49.267Z,7.90
2023-03-06T12:02:42.794Z,7.90
2023-03-06T12:04:35.172Z,7.90
2023-03-06T12:06:17.516Z,8.00
2023-03-06T12:07:59.014Z,8.10
2023-03-06T12:09:45.276Z,8.20
2023-03-06T12:11:23.648Z,8.30
2023-03-06T12:13:20.213Z,8.40
2023-03-06T12:15:11.734Z,8.50
2023-03-06T12:17:19.747Z,8.60
2023-03-06T12:19:02.981Z,8.70
2023-03-06T12:20:54.004Z,8.80
2023-03-06T12:22:57.616Z,8.80
2023-03-06T12:24:51.856Z,8.80
2023-03-06T12:26:43.993Z,8.80
2023-03-06T12:28:37.144Z,8.80
2023-03-06T12:30:37.151Z,8.70
2023-03-06T12:32:21.107Z,8.70
2023-03-06T12:34:07.019Z,8.70
2023-03-06T12:35:56.511Z,8.60
2023-03-06T12:37:40.347Z,8.60
2023-03-06T12:39:24.228Z,8.60
2023-03-06T12:41:09.338Z,8.60
2023-03-06T12:42:59.144Z,8.60
2023-03-06T12:44:55.555Z,8.70
2023-03-06T12:46:30.420Z,8.70
2023-03-06T12:48:03.772Z,8.80
2023-03-06T12:49:41.984Z,8.80
2023-03-06T12:51:18.012Z,8.90
2023-03-06T12:52:52.205Z,8.90
2023-03-06T12:54:29.113Z,8.90
2023-03-06T12:56:03.364Z,8.80
2023-03-06T12:57:36.121Z,8.80
2023-03-06T12:59:36.289Z,8.70
2023-03-06T13:01:19.808Z,8.70
2023-03-06T13:03:07.451Z,8.70
2023-03-06T13:04:58.434Z,8.60
2023-03-06T13:06:51.443Z,8.60
2023-03-06T13:08:50.801Z,8.60
2023-03-06T13:10:28.201Z,8.50
2023-03-06T13:12:27.758Z,8.50
2023-03-06T13:14:00.624Z,8.40
2023-03-06T13:15:40.652Z,8.40
2023-03-06T13:17:32.952Z,8.40
2023-03-06T13:19:12.778Z,8.30
2023-03-06T13:20:47.348Z,8.30
2023-03-06T13:22:28.566Z,8.20
2023-03-06T13:24:06.619Z,8.20
2023-03-06T13:25:49.681Z,8.20
2023-03-06T13:27:46.699Z,8.10
2023-03-06T13:30:02.304Z,8.10
2023-03-06T13:32:16.132Z,8.10
2023-03-06T13:33:53.768Z,8.10
2023-03-06T13:35:51.961Z,8.00
2023-03-06T13:37:50.639Z,8.00
2023-03-06T13:39:23.375Z,7.90
2023-03-06T13:41:40.493Z,7.90
2023-03-06T13:43:22.606Z,7.80
2023-03-06T13:44:56.895Z,7.80
2023-03-06T13:46:35.078Z,7.90
2023-03-06T13:48:33.615Z,7.80
2023-03-06T13:50:01.727Z,7.80
2023-03-06T13:51:36.616Z,7.80
2023-03-06T13:53:55.120Z,7.80
2023-03-06T13:55:36.994Z,7.70
2023-03-06T13:57:27.757Z,7.80
2023-03-06T13:59:33.445Z,7.70
2023-03-06T14:01:22.101Z,7.70
2023-03-06T14:03:03.578Z,7.80
2023-03-06T14:04:53.276Z,7.80
2023-03-06T14:06:49.983Z,7.80
2023-03-06T14:08:25.316Z,7.80
2023-03-06T14:10:05.734Z,7.70
2023-03-06T14:11:40.579Z,7.70
2023-03-06T14:13:19.493Z,7.60
2023-03-06T14:14:56.487Z,7.60
2023-03-06T14:16:43.820Z,7.60
2023-03-06T14:18:23.701Z,7.50
2023-03-06T14:19:58.747Z,7.50
2023-03-06T14:21:33.290Z,7.50
2023-03-06T14:23:17.251Z,7.50
2023-03-06T14:24:59.672Z,7.40
2023-03-06T14:26:34.371Z,7.40
2023-03-06T14:28:14.106Z,7.40
2023-03-06T14:29:48.629Z,7.30
2023-03-06T14:31:25.356Z,7.30
2023-03-06T14:32:58.092Z,7.30
2023-03-06T14:34:33.787Z,7.30
2023-03-06T14:36:10.805Z,7.20
2023-03-06T14:37:43.533Z,7.20
2023-03-06T14:39:21.805Z,7.20
2023-03-06T14:40:54.646Z,7.20
2023-03-06T14:42:29.475Z,7.10
2023-03-06T14:44:10.512Z,7.10
2023-03-06T14:45:57.941Z,7.10
2023-03-06T14:47:33.588Z,7.10
2023-03-06T14:49:08.534Z,7.10
2023-03-06T14:50:42.061Z,7.10
2023-03-06T14:52:19.596Z,7.10
2023-03-06T14:53:54.994Z,7.10
2023-03-06T14:55:29.679Z,7.10
2023-03-06T14:57:05.873Z,7.10
2023-03-06T14:58:46.498Z,7.10
2023-03-06T15:00:22.189Z,7.10
2023-03-06T15:01:59.979Z,7.10
2023-03-06T15:03:44.021Z,7.10
2023-03-06T15:05:23.009Z,7.10
2023-03-06T15:06:57.278Z,7.10
2023-03-06T15:08:34.219Z,7.00
2023-03-06T15:10:10.465Z,7.00
2023-03-06T15:11:54.411Z,7.10
2023-03-06T15:13:29.262Z,7.00
2023-03-06T15:15:04.070Z,7.00
2023-03-06T15:16:36.852Z,7.00
2023-03-06T15:18:29.634Z,7.00
2023-03-06T15:20:03.731Z,7.00
2023-03-06T15:21:38.712Z,7.00
2023-03-06T15:23:18.036Z,6.90
2023-03-06T15:24:50.765Z,6.90
2023-03-06T15:26:32.945Z,6.90
2023-03-06T15:28:25.730Z,6.80
2023-03-06T15:30:11.972Z,6.80
2023-03-06T15:31:46.213Z,6.80
2023-03-06T15:33:26.114Z,6.80
2023-03-06T15:35:29.108Z,6.80
2023-03-06T15:37:02.369Z,6.80
2023-03-06T15:38:37.142Z,6.80
2023-03-06T15:40:20.161Z,6.80
2023-03-06T15:41:57.724Z,6.70
2023-03-06T15:43:34.616Z,6.70
2023-03-06T15:45:16.112Z,6.70
2023-03-06T15:46:51.803Z,6.70
2023-03-06T15:48:27.139Z,6.70
2023-03-06T15:50:00.032Z,6.60
2023-03-06T15:51:34.719Z,6.60
2023-03-06T15:53:07.452Z,6.60
2023-03-06T15:54:40.162Z,6.50
2023-03-06T15:56:13.466Z,6.50
2023-03-06T15:57:50.698Z,6.50
2023-03-06T15:59:25.960Z,6.40
2023-03-06T16:00:58.698Z,6.40
2023-03-06T16:02:31.450Z,6.40
2023-03-06T16:04:04.262Z,6.40
2023-03-06T16:05:37.143Z,6.40
2023-03-06T16:07:11.244Z,6.30
2023-03-06T16:08:44.120Z,6.30
2023-03-06T16:10:19.055Z,6.30
2023-03-06T16:11:51.954Z,6.30
2023-03-06T16:13:27.938Z,6.40
2023-03-06T16:15:02.880Z,6.30
2023-03-06T16:16:37.247Z,6.30
2023-03-06T16:18:11.703Z,6.30
2023-03-06T16:19:44.587Z,6.30
2023-03-06T16:21:17.367Z,6.30
2023-03-06T16:22:53.578Z,6.30
2023-03-06T16:24:26.630Z,6.40
2023-03-06T16:25:59.477Z,6.40
2023-03-06T16:27:32.183Z,6.40
2023-03-06T16:29:05.785Z,6.40
2023-03-06T16:30:39.133Z,6.40
2023-03-06T16:32:12.353Z,6.40
2023-03-06T16:33:45.059Z,6.40
2023-03-06T16:35:18.441Z,6.40
2023-03-06T16:36:51.701Z,6.30
2023-03-06T16:38:25.714Z,6.30
2023-03-06T16:39:58.402Z,6.30
2023-03-06T16:41:31.154Z,6.20
2023-03-06T16:43:04.636Z,6.20
2023-03-06T16:44:37.338Z,6.20
2023-03-06T16:46:17.368Z,6.20
2023-03-06T16:47:50.618Z,6.20
2023-03-06T16:49:25.175Z,6.20
2023-03-06T16:50:57.975Z,6.10
2023-03-06T16:52:30.791Z,6.10
2023-03-06T16:54:05.164Z,6.10
2023-03-06T16:55:37.938Z,6.00
2023-03-06T16:57:14.899Z,6.00
2023-03-06T16:58:48.214Z,5.90
2023-03-06T17:00:24.580Z,5.90
2023-03-06T17:01:57.302Z,5.90
2023-03-06T17:03:30.003Z,5.80
2023-03-06T17:05:02.848Z,5.80
2023-03-06T17:06:35.576Z,5.80
2023-03-06T17:08:08.308Z,5.70
2023-03-06T17:09:43.168Z,5.70
2023-03-06T17:11:16.185Z,5.60
2023-03-06T17:12:49.099Z,5.60
2023-03-06T17:14:21.818Z,5.60
2023-03-06T17:15:59.127Z,5.50
2023-03-06T17:17:32.212Z,5.50
2023-03-06T17:19:04.975Z,5.50
2023-03-06T17:20:38.444Z,5.50
2023-03-06T17:22:11.124Z,5.40
2023-03-06T17:23:44.310Z,5.40
2023-03-06T17:25:18.583Z,5.40
2023-03-06T17:26:51.485Z,5.40
2023-03-06T17:28:24.178Z,5.30
2023-03-06T17:29:57.768Z,5.30
2023-03-06T17:31:30.743Z,5.30
2023-03-06T17:33:03.615Z,5.30
2023-03-06T17:34:36.506Z,5.20
2023-03-06T17:36:10.714Z,5.20
2023-03-06T17:37:43.394Z,5.20
2023-03-06T17:39:16.139Z,5.20
2023-03-06T17:40:50.156Z,5.10
2023-03-06T17:42:22.848Z,5.10
2023-03-06T17:43:58.120Z,5.10
2023-03-06T17:45:30.819Z,5.00
2023-03-06T17:47:03.937Z,5.00
2023-03-06T17:48:37.186Z,5.00
2023-03-06T17:50:11.315Z,4.90
2023-03-06T17:51:44.000Z,4.90
2023-03-06T17:53:16.688Z,4.90
2023-03-06T17:54:49.695Z,4.90
2023-03-06T17:56:23.898Z,4.90
2023-03-06T17:57:56.999Z,4.80
2023-03-06T17:59:30.310Z,4.80
2023-03-06T18:01:11.148Z,4.80
2023-03-06T18:02:45.231Z,4.70
2023-03-06T18:04:17.931Z,4.70
2023-03-06T18:05:59.663Z,4.60
2023-03-06T18:07:32.499Z,4.60
2023-03-06T18:09:06.171Z,4.50
2023-03-06T18:10:40.963Z,4.50
2023-03-06T18:12:15.016Z,4.40
2023-03-06T18:13:48.634Z,4.50
2023-03-06T18:15:21.367Z,4.50
2023-03-06T18:16:54.097Z,4.50
2023-03-06T18:18:27.160Z,4.40
2023-03-06T18:20:00.166Z,4.50
2023-03-06T18:21:33.133Z,4.50
2023-03-06T18:23:05.806Z,4.40
2023-03-06T18:24:38.539Z,4.40
2023-03-06T18:26:13.515Z,4.40
2023-03-06T18:27:47.550Z,4.40
2023-03-06T18:29:20.284Z,4.40
2023-03-06T18:30:52.998Z,4.40
2023-03-06T18:32:25.719Z,4.40
2023-03-06T18:34:00.426Z,4.40
2023-03-06T18:35:34.525Z,4.40
2023-03-06T18:37:07.309Z,4.40
2023-03-06T18:38:41.328Z,4.40
2023-03-06T18:40:15.030Z,4.40
2023-03-06T18:41:48.624Z,4.40
2023-03-06T18:43:22.648Z,4.40
2023-03-06T18:44:55.364Z,4.30
2023-03-06T18:46:32.176Z,4.40
2023-03-06T18:48:05.753Z,4.30
2023-03-06T18:49:40.548Z,4.30
2023-03-06T18:51:15.803Z,4.30
2023-03-06T18:52:48.514Z,4.30
2023-03-06T18:54:21.310Z,4.30
2023-03-06T18:55:54.567Z,4.20
2023-03-06T18:57:29.297Z,4.20
2023-03-06T18:59:05.396Z,4.20
2023-03-06T19:00:38.078Z,4.20
2023-03-06T19:02:11.795Z,4.20
2023-03-06T19:03:44.853Z,4.10
2023-03-06T19:05:17.784Z,4.10
2023-03-06T19:06:51.310Z,4.10
2023-03-06T19:08:24.808Z,4.10
2023-03-06T19:09:57.521Z,4.10
2023-03-06T19:11:31.808Z,4.10
2023-03-06T19:13:04.965Z,4.00
2023-03-06T19:14:38.989Z,4.00
2023-03-06T19:16:17.981Z,4.00
2023-03-06T19:17:51.343Z,4.00
2023-03-06T19:19:26.160Z,4.00
2023-03-06T19:21:08.438Z,4.00
2023-03-06T19:22:41.171Z,4.00
2023-03-06T19:24:14.258Z,4.00
2023-03-06T19:25:56.467Z,4.00
2023-03-06T19:27:30.029Z,4.00
2023-03-06T19:29:02.745Z,4.00
2023-03-06T19:30:40.239Z,4.00
2023-03-06T19:32:13.136Z,4.00
2023-03-06T19:33:46.733Z,4.00
2023-03-06T19:35:20.283Z,4.00
2023-03-06T19:36:53.008Z,4.00
2023-03-06T19:38:25.719Z,3.90
2023-03-06T19:40:01.251Z,3.90
2023-03-06T19:41:34.693Z,3.90
2023-03-06T19:43:07.443Z,3.90
2023-03-06T19:44:40.147Z,3.90
2023-03-06T19:46:15.303Z,3.80
2023-03-06T19:47:49.176Z,3.80
2023-03-06T19:49:22.170Z,3.80
2023-03-06T19:50:54.900Z,3.80
2023-03-06T19:52:28.038Z,3.80
2023-03-06T19:54:00.732Z,3.80
2023-03-06T19:55:33.632Z,3.80
2023-03-06T19:57:06.446Z,3.80
2023-03-06T19:58:40.529Z,3.80
2023-03-06T20:00:14.552Z,3.80
2023-03-06T20:01:48.636Z,3.80
2023-03-06T20:03:21.409Z,3.80
2023-03-06T20:04:54.744Z,3.70
2023-03-06T20:06:29.313Z,3.80
2023-03-06T20:08:02.028Z,3.70
2023-03-06T20:09:35.026Z,3.70
2023-03-06T20:11:07.699Z,3.70
2023-03-06T20:12:40.532Z,3.80
2023-03-06T20:14:14.171Z,3.70
2023-03-06T20:15:46.977Z,3.70
2023-03-06T20:17:21.102Z,3.70
2023-03-06T20:18:54.462Z,3.70
2023-03-06T20:20:27.164Z,3.60
2023-03-06T20:22:00.367Z,3.60
2023-03-06T20:23:33.705Z,3.60
2023-03-06T20:25:07.105Z,3.60
2023-03-06T20:26:39.798Z,3.60
2023-03-06T20:28:12.483Z,3.60
2023-03-06T20:29:45.647Z,3.50
2023-03-06T20:31:20.317Z,3.50
2023-03-06T20:32:55.738Z,3.50
2023-03-06T20:34:28.896Z,3.40
2023-03-06T20:36:01.720Z,3.40
2023-03-06T20:37:34.472Z,3.40
2023-03-06T20:39:09.800Z,3.40
2023-03-06T20:40:43.412Z,3.40
2023-03-06T20:42:17.594Z,3.40
2023-03-06T20:43:50.315Z,3.30
2023-03-06T20:45:23.116Z,3.40
2023-03-06T20:46:55.915Z,3.30
2023-03-06T20:48:30.424Z,3.30
2023-03-06T20:50:03.143Z,3.30
2023-03-06T20:51:39.037Z,3.30
2023-03-06T20:53:11.753Z,3.30
2023-03-06T20:54:45.249Z,3.30
2023-03-06T20:56:20.026Z,3.20
2023-03-06T20:57:53.243Z,3.20
2023-03-06T20:59:25.988Z,3.20
2023-03-06T21:01:00.800Z,3.20
2023-03-06T21:02:34.910Z,3.20
2023-03-06T21:04:10.736Z,3.20
2023-03-06T21:05:43.568Z,3.20
2023-03-06T21:07:16.876Z,3.20
2023-03-06T21:08:49.935Z,3.20
2023-03-06T21:10:22.636Z,3.20
2023-03-06T21:11:55.404Z,3.10
2023-03-06T21:13:27.186Z,3.10
2023-03-06T21:14:59.924Z,3.10
2023-03-06T21:16:32.799Z,3.20